createdAt,value
2019-01-25T00:00:59.519Z,202.53
2019-01-25T00:03:31.845Z,197.53
2019-01-25T00:06:02.254Z,198.67
2019-01-25T00:08:32.840Z,218.40
2019-01-25T00:11:03.247Z,196.53
2019-01-25T00:13:33.710Z,198.20
2019-01-25T00:16:05.185Z,199.17
2019-01-25T00:18:35.756Z,186.50
2019-01-25T00:21:07.783Z,194.60
2019-01-25T00:23:38.283Z,214.77
2019-01-25T00:26:08.808Z,208.57
2019-01-25T00:28:39.325Z,193.30
2019-01-25T00:31:09.718Z,177.37
2019-01-25T00:33:40.389Z,186.07
2019-01-25T00:36:10.879Z,192.20
2019-01-25T00:38:41.337Z,183.07
2019-01-25T00:41:12.908Z,169.87
2019-01-25T00:43:43.475Z,178.13
2019-01-25T00:46:13.875Z,184.03
2019-01-25T00:48:44.490Z,158.57
2019-01-25T00:51:15.005Z,166.93
2019-01-25T00:53:45.360Z,157.70
2019-01-25T00:56:15.790Z,164.77
2019-01-25T00:58:46.248Z,153.60
2019-01-25T01:01:16.707Z,156.33
2019-01-25T01:03:47.234Z,146.30
2019-01-25T01:06:17.720Z,147.23
2019-01-25T01:08:49.274Z,151.03
2019-01-25T01:11:19.776Z,142.87
2019-01-25T01:13:50.551Z,136.67
2019-01-25T01:16:21.074Z,147.57
2019-01-25T01:18:51.678Z,146.00
2019-01-25T01:21:22.253Z,140.53
2019-01-25T01:23:52.666Z,143.80
2019-01-25T01:26:23.215Z,134.80
2019-01-25T01:28:53.570Z,139.60
2019-01-25T01:31:24.099Z,148.67
2019-01-25T01:33:54.556Z,143.13
2019-01-25T01:36:25.076Z,147.37
2019-01-25T01:38:55.588Z,135.27
2019-01-25T01:41:56.253Z,143.50
2019-01-25T01:44:27.009Z,147.50
2019-01-25T01:46:57.449Z,138.30
2019-01-25T01:49:28.223Z,139.30
2019-01-25T01:52:03.556Z,131.10
2019-01-25T01:54:34.074Z,144.20
2019-01-25T01:57:04.900Z,154.47
2019-01-25T01:59:35.839Z,142.33
2019-01-25T02:02:06.494Z,142.07
2019-01-25T02:04:37.326Z,139.93
2019-01-25T02:07:07.960Z,147.83
2019-01-25T02:09:38.374Z,134.97
2019-01-25T02:12:08.958Z,146.47
2019-01-25T02:14:39.431Z,147.97
2019-01-25T02:17:09.971Z,142.17
2019-01-25T02:19:40.549Z,157.63
2019-01-25T02:22:10.990Z,138.60
2019-01-25T02:24:41.478Z,154.50
2019-01-25T02:27:11.904Z,140.97
2019-01-25T02:29:42.439Z,127.80
2019-01-25T02:32:12.998Z,131.00
2019-01-25T02:34:43.453Z,108.53
2019-01-25T02:37:13.877Z,108.90
2019-01-25T02:39:44.311Z,113.30
2019-01-25T02:42:14.976Z,124.57
2019-01-25T02:44:45.671Z,117.00
2019-01-25T02:47:16.285Z,114.17
2019-01-25T02:49:49.900Z,127.10
2019-01-25T02:52:20.576Z,113.97
2019-01-25T02:54:51.029Z,122.83
2019-01-25T02:57:21.581Z,111.47
2019-01-25T02:59:52.115Z,133.10
2019-01-25T03:02:22.720Z,111.77
2019-01-25T03:04:55.810Z,128.80
2019-01-25T03:09:29.868Z,120.43
2019-01-25T03:12:00.555Z,114.70
2019-01-25T03:14:30.994Z,114.83
2019-01-25T03:17:01.433Z,120.40
2019-01-25T03:19:31.949Z,109.63
2019-01-25T03:22:02.442Z,119.90
2019-01-25T03:24:32.877Z,112.40
2019-01-25T03:27:03.582Z,120.40
2019-01-25T03:29:33.908Z,114.57
2019-01-25T03:32:04.463Z,110.17
2019-01-25T03:34:35.046Z,114.60
2019-01-25T03:37:05.581Z,116.57
2019-01-25T03:39:36.234Z,121.97
2019-01-25T03:42:06.786Z,118.87
2019-01-25T03:44:37.308Z,119.90
2019-01-25T03:47:07.766Z,108.77
2019-01-25T03:49:38.419Z,122.73
2019-01-25T03:52:09.052Z,122.80
2019-01-25T03:54:39.686Z,126.03
2019-01-25T03:57:10.391Z,113.13
2019-01-25T03:59:40.792Z,117.27
2019-01-25T04:02:11.415Z,115.73
2019-01-25T04:04:41.951Z,117.13
2019-01-25T04:07:12.435Z,111.63
2019-01-25T04:09:43.000Z,110.77
2019-01-25T04:12:13.516Z,118.63
2019-01-25T04:14:43.940Z,111.17
2019-01-25T04:17:14.663Z,112.30
2019-01-25T04:19:45.192Z,117.07
2019-01-25T04:22:15.601Z,126.20
2019-01-25T04:24:46.157Z,114.20
2019-01-25T04:27:16.647Z,117.77
2019-01-25T04:29:47.215Z,129.53
2019-01-25T04:32:17.811Z,126.00
2019-01-25T04:34:48.426Z,127.40
2019-01-25T04:37:18.928Z,129.30
2019-01-25T04:39:49.798Z,133.07
2019-01-25T04:42:20.130Z,129.27
2019-01-25T04:44:50.723Z,133.67
2019-01-25T04:47:27.787Z,133.93
2019-01-25T04:49:58.202Z,130.97
2019-01-25T04:52:28.617Z,131.53
2019-01-25T04:54:59.243Z,135.23
2019-01-25T04:57:29.769Z,124.57
2019-01-25T05:00:00.730Z,135.50
2019-01-25T05:02:31.716Z,130.03
2019-01-25T05:05:02.577Z,123.77
2019-01-25T05:07:33.127Z,121.73
2019-01-25T05:10:03.854Z,125.43
2019-01-25T05:12:34.442Z,125.80
2019-01-25T05:15:06.018Z,127.57
2019-01-25T05:17:36.636Z,122.00
2019-01-25T05:20:07.633Z,119.33
2019-01-25T05:22:38.452Z,125.70
2019-01-25T05:25:08.991Z,129.00
2019-01-25T05:27:39.561Z,131.53
2019-01-25T05:30:11.828Z,126.87
2019-01-25T05:32:42.386Z,134.43
2019-01-25T05:35:21.364Z,128.10
2019-01-25T05:37:52.787Z,134.70
2019-01-25T05:40:25.584Z,135.03
2019-01-25T05:42:56.161Z,126.33
2019-01-25T05:45:26.666Z,128.50
2019-01-25T05:47:57.258Z,124.07
2019-01-25T05:50:29.643Z,120.53
2019-01-25T05:53:00.415Z,150.50
2019-01-25T05:55:30.899Z,129.67
2019-01-25T05:58:02.205Z,139.53
2019-01-25T06:00:35.856Z,126.93
2019-01-25T06:03:11.744Z,129.80
2019-01-25T06:05:42.679Z,127.17
2019-01-25T06:08:30.257Z,123.17
2019-01-25T06:11:03.432Z,126.03
2019-01-25T06:13:34.017Z,120.67
2019-01-25T06:16:05.160Z,126.83
2019-01-25T06:18:35.831Z,124.67
2019-01-25T06:21:06.871Z,121.43
2019-01-25T06:23:37.652Z,131.60
2019-01-25T06:26:09.145Z,115.77
2019-01-25T06:28:39.703Z,130.47
2019-01-25T06:31:10.329Z,134.37
2019-01-25T06:33:40.858Z,123.87
2019-01-25T06:36:11.473Z,130.70
2019-01-25T06:38:42.156Z,120.10
2019-01-25T06:41:12.894Z,133.50
2019-01-25T06:43:43.379Z,123.20
2019-01-25T06:46:14.292Z,129.73
2019-01-25T06:48:45.324Z,128.40
2019-01-25T06:51:16.307Z,130.47
2019-01-25T06:53:47.003Z,132.57
2019-01-25T06:56:18.236Z,135.30
2019-01-25T06:58:56.349Z,126.33
2019-01-25T07:01:49.724Z,128.50
2019-01-25T07:04:20.991Z,127.33
2019-01-25T07:06:51.467Z,120.83
2019-01-25T07:09:22.122Z,124.77
2019-01-25T07:11:53.149Z,116.77
2019-01-25T07:14:24.079Z,136.13
2019-01-25T07:16:55.077Z,137.53
2019-01-25T07:19:26.016Z,131.63
2019-01-25T07:21:56.867Z,123.60
2019-01-25T07:24:27.427Z,129.60
2019-01-25T07:26:58.330Z,126.23
2019-01-25T07:29:28.982Z,132.77
2019-01-25T07:31:59.575Z,133.37
2019-01-25T07:34:29.974Z,128.57
2019-01-25T07:37:00.486Z,130.30
2019-01-25T07:39:30.933Z,124.47
2019-01-25T07:42:05.320Z,126.27
2019-01-25T07:44:36.020Z,134.87
2019-01-25T07:47:06.600Z,125.87
2019-01-25T07:49:37.138Z,117.50
2019-01-25T07:52:07.608Z,126.37
2019-01-25T07:54:48.555Z,130.47
2019-01-25T07:57:19.192Z,115.63
2019-01-25T07:59:49.859Z,122.63
2019-01-25T08:02:20.477Z,114.27
2019-01-25T08:04:51.035Z,118.63
2019-01-25T08:07:21.654Z,114.20
2019-01-25T08:09:52.353Z,116.27
2019-01-25T08:12:22.957Z,112.00
2019-01-25T08:14:53.563Z,113.77
2019-01-25T08:17:24.073Z,119.83
2019-01-25T08:19:54.644Z,115.60
2019-01-25T08:22:25.352Z,109.77
2019-01-25T08:24:56.183Z,118.47
2019-01-25T08:27:26.869Z,113.23
2019-01-25T08:29:57.349Z,121.60
2019-01-25T08:32:28.488Z,125.63
2019-01-25T08:34:58.946Z,119.27
2019-01-25T08:37:29.661Z,112.97
2019-01-25T08:40:01.557Z,124.13
2019-01-25T08:42:32.543Z,127.03
2019-01-25T08:45:03.449Z,120.50
2019-01-25T08:47:34.188Z,130.83
2019-01-25T08:50:07.796Z,118.40
2019-01-25T08:52:38.699Z,121.53
2019-01-25T08:55:10.162Z,107.27
2019-01-25T08:57:41.020Z,127.37
2019-01-25T09:00:20.592Z,123.23
2019-01-25T09:02:51.704Z,110.27
2019-01-25T09:05:22.604Z,115.47
2019-01-25T09:07:53.477Z,121.23
2019-01-25T09:10:24.190Z,113.90
2019-01-25T09:12:55.128Z,107.43
2019-01-25T09:15:27.958Z,106.43
2019-01-25T09:17:58.462Z,99.77
2019-01-25T09:20:29.652Z,104.60
2019-01-25T09:23:00.616Z,110.23
2019-01-25T09:25:31.551Z,99.67
2019-01-25T09:28:02.549Z,107.70
2019-01-25T09:30:33.338Z,110.77
2019-01-25T09:33:06.487Z,113.07
2019-01-25T09:35:37.113Z,121.10
2019-01-25T09:38:08.242Z,114.60
2019-01-25T09:40:39.017Z,103.00
2019-01-25T09:43:11.753Z,103.87
2019-01-25T09:45:42.732Z,112.20
2019-01-25T09:48:13.418Z,109.77
2019-01-25T09:50:44.347Z,112.60
2019-01-25T09:53:15.323Z,115.60
2019-01-25T09:55:45.969Z,119.23
2019-01-25T09:58:21.632Z,109.63
2019-01-25T10:01:05.864Z,122.10
2019-01-25T10:03:36.508Z,99.27
2019-01-25T10:06:07.556Z,96.67
2019-01-25T10:08:38.499Z,114.30
2019-01-25T10:11:11.069Z,107.70
2019-01-25T10:13:42.090Z,112.33
2019-01-25T10:16:13.744Z,103.57
2019-01-25T10:18:44.884Z,105.13
2019-01-25T10:21:15.968Z,113.20
2019-01-25T10:23:46.452Z,116.33
2019-01-25T10:26:17.389Z,104.27
2019-01-25T10:28:48.185Z,93.57
2019-01-25T10:31:18.935Z,83.50
2019-01-25T10:33:49.789Z,84.93
2019-01-25T10:36:21.352Z,92.60
2019-01-25T10:38:52.650Z,90.20
2019-01-25T10:41:23.750Z,92.93
2019-01-25T10:43:54.825Z,88.77
2019-01-25T10:46:25.973Z,96.67
2019-01-25T10:48:56.774Z,101.53
2019-01-25T10:51:27.509Z,87.03
2019-01-25T10:53:58.439Z,85.43
2019-01-25T10:56:29.283Z,91.93
2019-01-25T10:59:00.551Z,87.17
2019-01-25T11:01:31.755Z,82.07
2019-01-25T11:04:02.593Z,85.50
2019-01-25T11:06:33.368Z,86.10
2019-01-25T11:09:09.328Z,90.03
2019-01-25T11:11:40.373Z,81.60
2019-01-25T11:14:13.264Z,94.33
2019-01-25T11:16:44.446Z,86.90
2019-01-25T11:19:17.106Z,91.53
2019-01-25T11:21:54.816Z,87.30
2019-01-25T11:24:25.812Z,88.87
2019-01-25T11:27:00.438Z,81.43
2019-01-25T11:29:31.339Z,92.10
2019-01-25T11:32:02.075Z,80.17
2019-01-25T11:34:33.174Z,99.40
2019-01-25T11:37:04.034Z,102.00
2019-01-25T11:39:34.594Z,93.33
2019-01-25T11:42:05.325Z,92.23
2019-01-25T11:44:36.225Z,90.47
2019-01-25T11:47:06.945Z,87.53
2019-01-25T11:49:37.704Z,90.20
2019-01-25T11:52:08.720Z,98.20
2019-01-25T11:54:39.462Z,93.73
2019-01-25T11:57:10.035Z,89.80
2019-01-25T11:59:45.145Z,95.03
2019-01-25T12:02:20.893Z,90.00
2019-01-25T12:04:49.096Z,91.80
2019-01-25T12:07:25.696Z,87.37
2019-01-25T12:09:56.346Z,89.10
2019-01-25T12:12:31.993Z,89.13
2019-01-25T12:15:02.537Z,99.57
2019-01-25T12:17:33.184Z,89.17
2019-01-25T12:20:05.121Z,99.20
2019-01-25T12:22:35.659Z,95.87
2019-01-25T12:25:06.748Z,92.13
2019-01-25T12:27:42.626Z,98.13
2019-01-25T12:30:27.207Z,110.07
2019-01-25T12:32:59.876Z,91.33
2019-01-25T12:35:33.381Z,91.30
2019-01-25T12:38:03.936Z,98.67
2019-01-25T12:40:35.463Z,95.07
2019-01-25T12:43:06.486Z,105.17
2019-01-25T12:45:37.247Z,109.53
2019-01-25T12:48:08.244Z,105.83
2019-01-25T12:50:50.888Z,101.90
2019-01-25T12:53:23.170Z,81.87
2019-01-25T12:55:54.089Z,98.17
2019-01-25T12:58:24.640Z,98.90
2019-01-25T13:00:55.442Z,91.23
2019-01-25T13:03:26.042Z,100.63
2019-01-25T13:05:56.569Z,104.77
2019-01-25T13:08:27.227Z,90.27
2019-01-25T13:10:59.812Z,92.60
2019-01-25T13:13:31.766Z,101.20
2019-01-25T13:16:02.791Z,91.33
2019-01-25T13:18:33.540Z,93.03
2019-01-25T13:21:04.266Z,101.93
2019-01-25T13:23:40.850Z,99.00
2019-01-25T13:26:13.029Z,105.00
2019-01-25T13:28:46.977Z,99.70
2019-01-25T13:31:17.802Z,95.00
2019-01-25T13:33:48.812Z,97.20
2019-01-25T13:36:23.365Z,96.27
2019-01-25T13:38:57.597Z,96.63
2019-01-25T13:41:29.472Z,98.37
2019-01-25T13:44:01.443Z,84.10
2019-01-25T13:46:32.390Z,90.03
2019-01-25T13:49:04.803Z,74.97
2019-01-25T13:51:35.480Z,91.87
2019-01-25T13:54:07.793Z,80.47
2019-01-25T13:56:40.126Z,76.03
2019-01-25T13:59:11.321Z,74.47
2019-01-25T14:01:41.864Z,80.43
2019-01-25T14:04:12.907Z,78.77
2019-01-25T14:06:43.797Z,88.20
2019-01-25T14:09:17.848Z,83.70
2019-01-25T14:11:48.962Z,87.17
2019-01-25T14:14:22.997Z,82.87
2019-01-25T14:16:56.892Z,96.87
2019-01-25T14:19:28.517Z,97.37
2019-01-25T14:22:50.316Z,80.43
2019-01-25T14:25:48.309Z,83.47
2019-01-25T14:28:21.945Z,82.67
2019-01-25T14:31:00.695Z,78.07
2019-01-25T14:33:37.034Z,85.00
2019-01-25T14:36:34.788Z,83.30
2019-01-25T14:39:21.135Z,78.63
2019-01-25T14:41:51.867Z,96.97
2019-01-25T14:44:27.437Z,92.43
2019-01-25T14:47:07.552Z,96.50
2019-01-25T14:49:38.802Z,97.27
2019-01-25T14:52:10.486Z,93.70
2019-01-25T14:54:41.767Z,98.27
2019-01-25T14:57:14.470Z,90.80
2019-01-25T14:59:45.318Z,116.10
2019-01-25T15:02:16.622Z,116.23
2019-01-25T15:04:47.651Z,118.10
2019-01-25T15:07:18.578Z,106.23
2019-01-25T15:09:51.773Z,107.93
2019-01-25T15:12:22.665Z,108.03
2019-01-25T15:14:54.888Z,117.30
2019-01-25T15:17:25.908Z,126.00
2019-01-25T15:19:56.937Z,121.63
2019-01-25T15:22:28.006Z,147.67
2019-01-25T15:25:01.692Z,110.37
2019-01-25T15:27:32.607Z,116.67
2019-01-25T15:30:03.603Z,127.07
2019-01-25T15:32:38.259Z,125.53
2019-01-25T15:35:13.916Z,110.73
2019-01-25T15:37:48.811Z,120.13
2019-01-25T15:40:21.533Z,115.10
2019-01-25T15:42:52.366Z,131.83
2019-01-25T15:45:23.651Z,132.73
2019-01-25T15:48:02.592Z,143.37
2019-01-25T15:50:37.882Z,145.73
2019-01-25T15:53:09.541Z,137.03
2019-01-25T15:55:40.748Z,137.90
2019-01-25T15:58:53.171Z,132.87
2019-01-25T16:01:24.841Z,158.83
2019-01-25T16:03:55.858Z,142.70
2019-01-25T16:06:33.389Z,133.87
2019-01-25T16:09:06.038Z,147.13
2019-01-25T16:11:38.369Z,142.03
2019-01-25T16:14:17.781Z,149.07
2019-01-25T16:16:42.742Z,133.03
2019-01-25T16:19:20.897Z,134.60
2019-01-25T16:21:52.194Z,138.47
2019-01-25T16:24:23.223Z,139.07
2019-01-25T16:26:53.734Z,129.73
2019-01-25T16:29:24.427Z,121.50
2019-01-25T16:31:55.452Z,134.13
2019-01-25T16:34:26.299Z,137.43
2019-01-25T16:36:57.138Z,151.77
2019-01-25T16:39:28.017Z,140.33
2019-01-25T16:42:05.381Z,127.37
2019-01-25T16:44:36.353Z,136.97
2019-01-25T16:47:07.652Z,146.23
2019-01-25T16:49:38.286Z,141.77
2019-01-25T16:52:09.268Z,143.03
2019-01-25T16:54:40.275Z,139.77
2019-01-25T16:57:10.734Z,150.60
2019-01-25T16:59:41.567Z,134.80
2019-01-25T17:02:15.617Z,138.23
2019-01-25T17:04:48.624Z,122.23
2019-01-25T17:07:19.555Z,132.17
2019-01-25T17:09:50.127Z,126.83
2019-01-25T17:12:21.164Z,137.23
2019-01-25T17:14:52.116Z,134.87
2019-01-25T17:17:22.816Z,131.13
2019-01-25T17:19:54.662Z,139.13
2019-01-25T17:22:25.485Z,133.47
2019-01-25T17:24:56.738Z,129.57
2019-01-25T17:27:29.253Z,129.60
2019-01-25T17:30:00.732Z,133.33
2019-01-25T17:32:31.383Z,138.93
2019-01-25T17:35:02.073Z,132.00
2019-01-25T17:37:34.174Z,120.63
2019-01-25T17:40:07.699Z,126.50
2019-01-25T17:42:39.538Z,122.93
2019-01-25T17:45:11.132Z,105.03
2019-01-25T17:47:42.009Z,108.43
2019-01-25T17:50:13.989Z,123.10
2019-01-25T17:52:45.367Z,122.00
2019-01-25T17:55:16.764Z,105.60
2019-01-25T17:57:47.517Z,121.77
2019-01-25T18:00:29.696Z,107.73
2019-01-25T18:03:01.237Z,97.50
2019-01-25T18:05:34.721Z,105.43
2019-01-25T18:08:06.353Z,101.73
2019-01-25T18:10:37.813Z,103.33
2019-01-25T18:13:10.234Z,109.90
2019-01-25T18:15:40.908Z,106.90
2019-01-25T18:18:12.504Z,94.20
2019-01-25T18:20:44.004Z,91.60
2019-01-25T18:23:15.404Z,90.90
2019-01-25T18:26:09.415Z,88.27
2019-01-25T18:29:02.288Z,73.80
2019-01-25T18:31:33.413Z,80.73
2019-01-25T18:34:06.960Z,76.40
2019-01-25T18:36:38.965Z,81.77
2019-01-25T18:39:10.593Z,76.70
2019-01-25T18:41:41.302Z,85.40
2019-01-25T18:44:12.353Z,82.90
2019-01-25T18:46:43.633Z,78.67
2019-01-25T18:49:14.706Z,82.47
2019-01-25T18:51:48.745Z,68.40
2019-01-25T18:54:19.860Z,73.77
2019-01-25T18:56:52.008Z,66.63
2019-01-25T18:59:23.231Z,74.10
2019-01-25T19:01:54.875Z,83.40
2019-01-25T19:04:25.612Z,66.17
2019-01-25T19:06:58.294Z,59.33
2019-01-25T19:09:29.598Z,69.90
2019-01-25T19:12:00.710Z,61.93
2019-01-25T19:14:31.522Z,68.40
2019-01-25T19:17:03.044Z,68.60
2019-01-25T19:19:34.291Z,58.33
2019-01-25T19:22:05.335Z,62.30
2019-01-25T19:24:37.422Z,67.87
2019-01-25T19:27:09.369Z,56.30
2019-01-25T19:29:40.469Z,62.13
2019-01-25T19:32:11.215Z,54.97
2019-01-25T19:34:42.434Z,60.47
2019-01-25T19:37:13.328Z,60.50
2019-01-25T19:39:44.860Z,59.53
2019-01-25T19:42:17.337Z,56.60
2019-01-25T19:44:48.781Z,58.27
2019-01-25T19:47:23.664Z,51.20
2019-01-25T19:49:55.329Z,56.47
2019-01-25T19:52:26.051Z,52.23
2019-01-25T19:54:57.118Z,53.10
2019-01-25T19:57:28.154Z,52.40
2019-01-25T19:59:59.824Z,52.30
2019-01-25T20:02:31.235Z,48.67
2019-01-25T20:05:04.075Z,45.50
2019-01-25T20:07:35.967Z,50.77
2019-01-25T20:10:07.748Z,45.50
2019-01-25T20:12:42.580Z,41.37
2019-01-25T20:15:19.512Z,51.40
2019-01-25T20:17:52.236Z,43.63
2019-01-25T20:20:26.299Z,49.67
2019-01-25T20:22:57.706Z,43.67
2019-01-25T20:25:28.718Z,40.67
2019-01-25T20:28:00.850Z,47.30
2019-01-25T20:30:33.769Z,43.87
2019-01-25T20:33:05.059Z,35.60
2019-01-25T20:35:38.688Z,41.17
2019-01-25T20:38:09.681Z,49.37
2019-01-25T20:40:42.437Z,40.50
2019-01-25T20:43:13.250Z,42.97
2019-01-25T20:45:44.089Z,42.43
2019-01-25T20:48:15.460Z,41.30
2019-01-25T20:50:46.351Z,39.83
2019-01-25T20:53:17.292Z,40.37
2019-01-25T20:55:47.988Z,35.83
2019-01-25T20:58:20.521Z,33.40
2019-01-25T21:00:51.379Z,31.23
2019-01-25T21:03:24.728Z,34.63
2019-01-25T21:05:58.858Z,36.80
2019-01-25T21:08:30.680Z,36.40
2019-01-25T21:11:06.965Z,38.00
2019-01-25T21:13:38.008Z,30.93
2019-01-25T21:16:09.104Z,28.10
2019-01-25T21:18:40.505Z,27.83
2019-01-25T21:21:11.585Z,29.97
2019-01-25T21:23:42.438Z,35.97
2019-01-25T21:26:13.772Z,32.87
2019-01-25T21:28:44.695Z,28.93
2019-01-25T21:31:17.798Z,28.80
2019-01-25T21:33:49.127Z,26.33
2019-01-25T21:36:20.482Z,31.07
2019-01-25T21:38:51.649Z,27.90
2019-01-25T21:41:22.381Z,33.53
2019-01-25T21:43:59.748Z,25.43
2019-01-25T21:46:30.314Z,24.40
2019-01-25T21:49:01.005Z,29.73
2019-01-25T21:51:31.685Z,25.03
2019-01-25T21:54:02.810Z,24.83
2019-01-25T21:56:33.654Z,29.33
2019-01-25T21:59:04.534Z,28.47
2019-01-25T22:01:35.140Z,28.87
2019-01-25T22:04:06.393Z,22.97
2019-01-25T22:06:37.237Z,26.60
2019-01-25T22:09:09.329Z,22.53
2019-01-25T22:11:40.323Z,26.03
2019-01-25T22:14:10.951Z,21.40
2019-01-25T22:16:41.829Z,21.60
2019-01-25T22:19:12.529Z,23.50
2019-01-25T22:21:45.410Z,24.00
2019-01-25T22:24:16.223Z,26.47
2019-01-25T22:26:46.784Z,25.67
2019-01-25T22:29:18.515Z,27.83
2019-01-25T22:31:49.015Z,26.83
2019-01-25T22:34:19.772Z,21.03
2019-01-25T22:36:50.392Z,29.70
2019-01-25T22:39:21.536Z,25.53
2019-01-25T22:41:52.384Z,21.77
2019-01-25T22:44:23.417Z,22.93
2019-01-25T22:46:54.310Z,19.73
2019-01-25T22:49:24.982Z,24.30
2019-01-25T22:51:56.026Z,24.77
2019-01-25T22:54:26.693Z,24.27
2019-01-25T22:56:57.077Z,26.30
2019-01-25T22:59:27.573Z,26.47
2019-01-25T23:01:58.847Z,24.30
2019-01-25T23:05:07.581Z,23.60
2019-01-25T23:07:38.266Z,25.83
2019-01-25T23:10:13.097Z,25.23
2019-01-25T23:12:44.244Z,25.00
2019-01-25T23:15:17.537Z,22.33
2019-01-25T23:17:48.121Z,22.83
2019-01-25T23:20:18.576Z,22.07
2019-01-25T23:22:49.159Z,30.23
2019-01-25T23:25:19.579Z,23.73
2019-01-25T23:27:50.225Z,28.33
2019-01-25T23:30:20.600Z,25.67
2019-01-25T23:32:51.237Z,26.43
2019-01-25T23:35:21.761Z,24.60
2019-01-25T23:37:52.937Z,27.77
2019-01-25T23:40:23.436Z,26.67
2019-01-25T23:42:53.890Z,26.63
2019-01-25T23:45:24.516Z,25.30
2019-01-25T23:47:59.890Z,25.57
2019-01-25T23:50:30.357Z,23.93
2019-01-25T23:53:00.932Z,24.87
2019-01-25T23:55:31.626Z,26.80
2019-01-25T23:58:02.097Z,27.07
